Buoy 46566

sailwx.info

Track history (hours):
 
Tides and Currents Weather Stations Pressure Air Temp Water Temp Dewpoint Dewpoint Depression Visibility Wind Speed Wind Dir Waves Ship Positions

Liao Sui Yu 46566

Last reported at 2017-Sep-21 20:00 UTC. Time now 2017-Sep-21 23:13 UTC.
Position N 31°59' W 142°40'.

Length 30 m.

Type: Fishing. MMSI: 412052352.

Date/timePositionNaut miles runAvg speedWind from/ knotsBaromVisibWave heightAir tempDewpointWater temp
2017-Sep-21 20:00N 31°59' W 142°40'1 0.7
2017-Sep-21 18:00N 31°58' W 142°41'1 0.6
2017-Sep-21 17:00N 31°58' W 142°41'0 0.0
2017-Sep-21 16:00N 31°58' W 142°41'1 0.3
2017-Sep-21 14:00N 31°57' W 142°41'1 1.2
2017-Sep-21 13:00N 31°58' W 142°42'0 0.0
2017-Sep-21 12:00N 31°58' W 142°42'0 0.0
2017-Sep-21 11:00N 31°58' W 142°42'3 0.7
2017-Sep-21 07:00N 31°55' W 142°41'0 0.0
2017-Sep-21 06:00N 31°55' W 142°41'1 1.2
2017-Sep-21 05:00N 31°54' W 142°41'1 1.0
2017-Sep-21 04:00N 31°54' W 142°40'1 0.8
2017-Sep-21 03:00N 31°53' W 142°40'1 0.5
2017-Sep-21 02:00N 31°53' W 142°40'0 0.0
2017-Sep-21 01:00N 31°53' W 142°40'1 0.8
2017-Sep-21 00:00N 31°53' W 142°39'0 0.0
2017-Sep-20 23:00N 31°53' W 142°39'2 0.6
2017-Sep-20 20:00N 31°52' W 142°37'1 0.6
2017-Sep-20 19:00N 31°51' W 142°37'1 0.3
2017-Sep-20 17:00N 31°51' W 142°37'1 0.6
2017-Sep-20 16:00N 31°50' W 142°37'0 0.0
2017-Sep-20 15:00N 31°50' W 142°37'1 0.6
2017-Sep-20 14:00N 31°50' W 142°37'0 0.0
2017-Sep-20 13:00N 31°50' W 142°37'3 3.0
2017-Sep-20 12:00N 31°47' W 142°36'3 3.0
2017-Sep-20 11:00N 31°50' W 142°37'3 0.8
2017-Sep-20 07:00N 31°47' W 142°35'1 0.6
2017-Sep-20 06:00N 31°46' W 142°35'1 0.8
2017-Sep-20 05:00N 31°46' W 142°35'1 0.6
2017-Sep-20 04:00N 31°45' W 142°35'1 1.2
2017-Sep-20 03:00N 31°44' W 142°34'1 0.4
2017-Sep-20 01:00N 31°44' W 142°33'1 0.5
2017-Sep-20 00:00N 31°44' W 142°32'0 0.0
2017-Sep-19 23:00N 31°44' W 142°32'3 0.7
2017-Sep-19 19:00N 31°41' W 142°31'0 0.0
2017-Sep-19 17:00N 31°41' W 142°31'1 1.2
2017-Sep-19 16:00N 31°40' W 142°31'1 0.6
2017-Sep-19 15:00N 31°40' W 142°31'1 1.0
2017-Sep-19 14:00N 31°40' W 142°30'1 1.3
2017-Sep-19 13:00N 31°38' W 142°31'4 3.7
2017-Sep-19 12:00N 31°35' W 142°29'5 4.7
2017-Sep-19 11:00N 31°39' W 142°32'5 1.3
2017-Sep-19 07:00N 31°35' W 142°28'2 1.6
2017-Sep-19 06:00N 31°34' W 142°26'0 0.0
2017-Sep-19 05:00N 31°34' W 142°26'0 0.0
2017-Sep-19 04:00N 31°34' W 142°26'2 1.0
2017-Sep-19 02:00N 31°33' W 142°25'1 0.5
2017-Sep-19 01:00N 31°33' W 142°24'0 0.0
2017-Sep-19 00:00N 31°33' W 142°24'0 0.0
2017-Sep-18 23:00N 31°33' W 142°24'1 0.4
2017-Sep-18 20:00N 31°32' W 142°23'1 0.6
2017-Sep-18 19:00N 31°32' W 142°23'0 0.0
2017-Sep-18 18:00N 31°32' W 142°23'1 1.3
2017-Sep-18 17:00N 31°31' W 142°23'1 1.3
2017-Sep-18 16:00N 31°32' W 142°24'2 1.9
2017-Sep-18 15:00N 31°30' W 142°23'1 0.5
2017-Sep-18 14:00N 31°30' W 142°23'1 0.8
2017-Sep-18 13:00N 31°29' W 142°23'4 4.5
2017-Sep-18 12:00N 31°25' W 142°22'0 0.0
2017-Sep-18 07:00N 31°25' W 142°22'1 0.8
2017-Sep-18 06:00N 31°25' W 142°21'1 0.8
2017-Sep-18 05:00N 31°24' W 142°20'1 0.8
2017-Sep-18 04:00N 31°23' W 142°20'2 1.5
2017-Sep-18 03:00N 31°23' W 142°18'0 0.0
2017-Sep-18 02:00N 31°23' W 142°18'1 0.3
2017-Sep-18 00:00N 31°23' W 142°17'1 0.1
2017-Sep-17 20:00N 31°23' W 142°17'0 0.0
2017-Sep-17 19:00N 31°23' W 142°17'1 0.5
2017-Sep-17 18:00N 31°23' W 142°17'1 1.3
2017-Sep-17 17:00N 31°22' W 142°18'0 0.0
2017-Sep-17 16:00N 31°22' W 142°18'1 0.8
2017-Sep-17 15:00N 31°22' W 142°17'1 0.8
2017-Sep-17 14:00N 31°21' W 142°18'4 3.9
2017-Sep-17 13:00N 31°18' W 142°15'4 3.6
2017-Sep-17 12:00N 31°21' W 142°17'4 0.9
2017-Sep-17 07:00N 31°17' W 142°14'0 0.0
2017-Sep-17 06:00N 31°17' W 142°14'2 1.5
2017-Sep-17 05:00N 31°17' W 142°13'1 0.5
2017-Sep-17 04:00N 31°17' W 142°13'0 0.0
2017-Sep-17 03:00N 31°17' W 142°13'1 1.0
2017-Sep-17 02:00N 31°17' W 142°12'1 0.5
2017-Sep-17 01:00N 31°17' W 142°11'0 0.0
2017-Sep-17 00:00N 31°17' W 142°11'1 0.3
2017-Sep-16 20:00N 31°17' W 142°10'1 0.6
2017-Sep-16 19:00N 31°17' W 142°10'0 0.0
2017-Sep-16 18:00N 31°17' W 142°10'1 0.4
2017-Sep-16 16:00N 31°16' W 142°11'0 0.0
2017-Sep-16 15:00N 31°16' W 142°11'6 2.8
2017-Sep-16 13:00N 31°11' W 142°09'0 0.0
2017-Sep-16 12:00N 31°11' W 142°09'0 0.0
2017-Sep-16 08:00N 31°11' W 142°09'1 0.5
2017-Sep-16 07:00N 31°11' W 142°08'0 0.0
2017-Sep-16 06:00N 31°11' W 142°08'1 0.5
2017-Sep-16 05:00N 31°11' W 142°08'1 0.8
2017-Sep-16 04:00N 31°10' W 142°07'1 0.6
2017-Sep-16 03:00N 31°10' W 142°07'1 0.8
2017-Sep-16 02:00N 31°10' W 142°07'1 0.8
2017-Sep-16 01:00N 31°10' W 142°06'0 0.0
2017-Sep-16 00:00N 31°10' W 142°06'2 0.5
2017-Sep-15 20:00N 31°08' W 142°06'0 0.0
2017-Sep-15 19:00N 31°08' W 142°06'1 1.2
2017-Sep-15 18:00N 31°07' W 142°06'0 0.0
2017-Sep-15 17:00N 31°07' W 142°06'1 0.6
2017-Sep-15 16:00N 31°06' W 142°06'0 0.0
2017-Sep-15 15:00N 31°06' W 142°06'1 0.8
2017-Sep-15 14:00N 31°05' W 142°05'4 4.1
2017-Sep-15 13:00N 31°02' W 142°03'4 3.6
2017-Sep-15 12:00N 31°05' W 142°05'4 3.6
2017-Sep-15 11:00N 31°02' W 142°03'1 0.1
2017-Sep-15 07:00N 31°02' W 142°02'1 0.5
2017-Sep-15 06:00N 31°02' W 142°02'1 0.8
2017-Sep-15 05:00N 31°01' W 142°01'1 0.5
2017-Sep-15 04:00N 31°01' W 142°01'1 0.5
2017-Sep-15 03:00N 31°01' W 142°00'1 0.3
2017-Sep-15 01:00N 31°01' W 141°59'1 0.8
2017-Sep-15 00:00N 31°01' W 141°59'0 0.0
2017-Sep-14 23:00N 31°01' W 141°59'0 0.0
2017-Sep-14 22:00N 31°01' W 141°59'1 0.3
2017-Sep-14 20:00N 31°01' W 141°58'1 0.8
2017-Sep-14 19:00N 31°00' W 141°59'1 0.5
2017-Sep-14 18:00N 31°00' W 141°59'2 1.0
2017-Sep-14 16:00N 30°59' W 141°58'1 0.6
2017-Sep-14 14:00N 30°58' W 141°56'1 1.3
2017-Sep-14 13:00N 30°57' W 141°56'4 2.1
2017-Sep-14 11:00N 30°56' W 141°51'0 0.0
2017-Sep-14 07:00N 30°56' W 141°51'1 0.8
2017-Sep-14 06:00N 30°56' W 141°52'0 0.0
2017-Sep-14 05:00N 30°56' W 141°52'1 1.2
2017-Sep-14 04:00N 30°56' W 141°50'1 0.5
2017-Sep-14 03:00N 30°56' W 141°50'1 1.0
2017-Sep-14 02:00N 30°56' W 141°49'1 0.5
2017-Sep-14 01:00N 30°56' W 141°49'1 1.2
2017-Sep-14 00:00N 30°55' W 141°48'0 0.0
2017-Sep-13 23:00N 30°55' W 141°48'1 0.2
2017-Sep-13 20:00N 30°55' W 141°48'1 1.3
2017-Sep-13 19:00N 30°53' W 141°47'1 1.2
2017-Sep-13 18:00N 30°53' W 141°46'0 0.0
2017-Sep-13 17:00N 30°53' W 141°46'1 0.5
2017-Sep-13 16:00N 30°53' W 141°46'1 0.8
2017-Sep-13 15:00N 30°52' W 141°45'1 1.0
2017-Sep-13 14:00N 30°52' W 141°44'1 0.8
2017-Sep-13 13:00N 30°53' W 141°43'4 3.9
2017-Sep-13 12:00N 30°50' W 141°40'3 3.3
2017-Sep-13 11:00N 30°52' W 141°43'3 0.8
2017-Sep-13 07:00N 30°50' W 141°40'1 1.0
2017-Sep-13 06:00N 30°50' W 141°38'1 1.0
2017-Sep-13 05:00N 30°50' W 141°37'1 0.8
2017-Sep-13 04:00N 30°50' W 141°37'1 0.6
2017-Sep-13 02:00N 30°50' W 141°35'1 0.8
2017-Sep-13 01:00N 30°50' W 141°35'1 1.0
2017-Sep-13 00:00N 30°50' W 141°34'0 0.0
2017-Sep-12 23:00N 30°50' W 141°34'3 0.9
2017-Sep-12 20:00N 30°49' W 141°31'0 0.0
2017-Sep-12 19:00N 30°49' W 141°31'1 0.5
2017-Sep-12 18:00N 30°49' W 141°30'1 1.2
2017-Sep-12 17:00N 30°48' W 141°29'0 0.0
2017-Sep-12 16:00N 30°48' W 141°29'1 1.0
2017-Sep-12 15:00N 30°48' W 141°28'1 0.5
2017-Sep-12 14:00N 30°48' W 141°28'2 1.5
2017-Sep-12 13:00N 30°48' W 141°26'3 2.8
2017-Sep-12 12:00N 30°47' W 141°23'3 3.3
2017-Sep-12 11:00N 30°48' W 141°27'4 1.0
2017-Sep-12 07:00N 30°47' W 141°23'1 1.0
2017-Sep-12 06:00N 30°47' W 141°22'1 0.5
2017-Sep-12 05:00N 30°47' W 141°21'1 0.5
2017-Sep-12 04:00N 30°47' W 141°20'1 0.8
2017-Sep-12 03:00N 30°47' W 141°20'1 0.8
2017-Sep-12 02:00N 30°47' W 141°19'1 0.5
2017-Sep-12 01:00N 30°47' W 141°19'1 1.0
2017-Sep-12 00:00N 30°47' W 141°17'0 0.0
2017-Sep-11 23:00N 30°47' W 141°17'3 1.1
2017-Sep-11 20:00N 30°46' W 141°14'  
Track history (hours):
 
Tides and Currents Weather Stations Pressure Air Temp Water Temp Dewpoint Dewpoint Depression Visibility Wind Speed Wind Dir Waves Ship Positions

Liao Sui Yu 46566

Last reported at 2017-Sep-21 20:00 UTC. Time now 2017-Sep-21 23:13 UTC.
Position N 31°59' W 142°40'.

Length 30 m.

Type: Fishing. MMSI: 412052352.

Date/timePositionNaut miles runAvg speedWind from/ knotsBaromVisibWave heightAir tempDewpointWater temp
2017-Sep-21 20:00N 31°59' W 142°40'1 0.7
2017-Sep-21 18:00N 31°58' W 142°41'1 0.6
2017-Sep-21 17:00N 31°58' W 142°41'0 0.0
2017-Sep-21 16:00N 31°58' W 142°41'1 0.3
2017-Sep-21 14:00N 31°57' W 142°41'1 1.2
2017-Sep-21 13:00N 31°58' W 142°42'0 0.0
2017-Sep-21 12:00N 31°58' W 142°42'0 0.0
2017-Sep-21 11:00N 31°58' W 142°42'3 0.7
2017-Sep-21 07:00N 31°55' W 142°41'0 0.0
2017-Sep-21 06:00N 31°55' W 142°41'1 1.2
2017-Sep-21 05:00N 31°54' W 142°41'1 1.0
2017-Sep-21 04:00N 31°54' W 142°40'1 0.8
2017-Sep-21 03:00N 31°53' W 142°40'1 0.5
2017-Sep-21 02:00N 31°53' W 142°40'0 0.0
2017-Sep-21 01:00N 31°53' W 142°40'1 0.8
2017-Sep-21 00:00N 31°53' W 142°39'0 0.0
2017-Sep-20 23:00N 31°53' W 142°39'2 0.6
2017-Sep-20 20:00N 31°52' W 142°37'1 0.6
2017-Sep-20 19:00N 31°51' W 142°37'1 0.3
2017-Sep-20 17:00N 31°51' W 142°37'1 0.6
2017-Sep-20 16:00N 31°50' W 142°37'0 0.0
2017-Sep-20 15:00N 31°50' W 142°37'1 0.6
2017-Sep-20 14:00N 31°50' W 142°37'0 0.0
2017-Sep-20 13:00N 31°50' W 142°37'3 3.0
2017-Sep-20 12:00N 31°47' W 142°36'3 3.0
2017-Sep-20 11:00N 31°50' W 142°37'3 0.8
2017-Sep-20 07:00N 31°47' W 142°35'1 0.6
2017-Sep-20 06:00N 31°46' W 142°35'1 0.8
2017-Sep-20 05:00N 31°46' W 142°35'1 0.6
2017-Sep-20 04:00N 31°45' W 142°35'1 1.2
2017-Sep-20 03:00N 31°44' W 142°34'1 0.4
2017-Sep-20 01:00N 31°44' W 142°33'1 0.5
2017-Sep-20 00:00N 31°44' W 142°32'0 0.0
2017-Sep-19 23:00N 31°44' W 142°32'3 0.7
2017-Sep-19 19:00N 31°41' W 142°31'0 0.0
2017-Sep-19 17:00N 31°41' W 142°31'1 1.2
2017-Sep-19 16:00N 31°40' W 142°31'1 0.6
2017-Sep-19 15:00N 31°40' W 142°31'1 1.0
2017-Sep-19 14:00N 31°40' W 142°30'1 1.3
2017-Sep-19 13:00N 31°38' W 142°31'4 3.7
2017-Sep-19 12:00N 31°35' W 142°29'5 4.7
2017-Sep-19 11:00N 31°39' W 142°32'5 1.3
2017-Sep-19 07:00N 31°35' W 142°28'2 1.6
2017-Sep-19 06:00N 31°34' W 142°26'0 0.0
2017-Sep-19 05:00N 31°34' W 142°26'0 0.0
2017-Sep-19 04:00N 31°34' W 142°26'2 1.0
2017-Sep-19 02:00N 31°33' W 142°25'1 0.5
2017-Sep-19 01:00N 31°33' W 142°24'0 0.0
2017-Sep-19 00:00N 31°33' W 142°24'0 0.0
2017-Sep-18 23:00N 31°33' W 142°24'1 0.4
2017-Sep-18 20:00N 31°32' W 142°23'1 0.6
2017-Sep-18 19:00N 31°32' W 142°23'0 0.0
2017-Sep-18 18:00N 31°32' W 142°23'1 1.3
2017-Sep-18 17:00N 31°31' W 142°23'1 1.3
2017-Sep-18 16:00N 31°32' W 142°24'2 1.9
2017-Sep-18 15:00N 31°30' W 142°23'1 0.5
2017-Sep-18 14:00N 31°30' W 142°23'1 0.8
2017-Sep-18 13:00N 31°29' W 142°23'4 4.5
2017-Sep-18 12:00N 31°25' W 142°22'0 0.0
2017-Sep-18 07:00N 31°25' W 142°22'1 0.8
2017-Sep-18 06:00N 31°25' W 142°21'1 0.8
2017-Sep-18 05:00N 31°24' W 142°20'1 0.8
2017-Sep-18 04:00N 31°23' W 142°20'2 1.5
2017-Sep-18 03:00N 31°23' W 142°18'0 0.0
2017-Sep-18 02:00N 31°23' W 142°18'1 0.3
2017-Sep-18 00:00N 31°23' W 142°17'1 0.1
2017-Sep-17 20:00N 31°23' W 142°17'0 0.0
2017-Sep-17 19:00N 31°23' W 142°17'1 0.5
2017-Sep-17 18:00N 31°23' W 142°17'1 1.3
2017-Sep-17 17:00N 31°22' W 142°18'0 0.0
2017-Sep-17 16:00N 31°22' W 142°18'1 0.8
2017-Sep-17 15:00N 31°22' W 142°17'1 0.8
2017-Sep-17 14:00N 31°21' W 142°18'4 3.9
2017-Sep-17 13:00N 31°18' W 142°15'4 3.6
2017-Sep-17 12:00N 31°21' W 142°17'4 0.9
2017-Sep-17 07:00N 31°17' W 142°14'0 0.0
2017-Sep-17 06:00N 31°17' W 142°14'2 1.5
2017-Sep-17 05:00N 31°17' W 142°13'1 0.5
2017-Sep-17 04:00N 31°17' W 142°13'0 0.0
2017-Sep-17 03:00N 31°17' W 142°13'1 1.0
2017-Sep-17 02:00N 31°17' W 142°12'1 0.5
2017-Sep-17 01:00N 31°17' W 142°11'0 0.0
2017-Sep-17 00:00N 31°17' W 142°11'1 0.3
2017-Sep-16 20:00N 31°17' W 142°10'1 0.6
2017-Sep-16 19:00N 31°17' W 142°10'0 0.0
2017-Sep-16 18:00N 31°17' W 142°10'1 0.4
2017-Sep-16 16:00N 31°16' W 142°11'0 0.0
2017-Sep-16 15:00N 31°16' W 142°11'6 2.8
2017-Sep-16 13:00N 31°11' W 142°09'0 0.0
2017-Sep-16 12:00N 31°11' W 142°09'0 0.0
2017-Sep-16 08:00N 31°11' W 142°09'1 0.5
2017-Sep-16 07:00N 31°11' W 142°08'0 0.0
2017-Sep-16 06:00N 31°11' W 142°08'1 0.5
2017-Sep-16 05:00N 31°11' W 142°08'1 0.8
2017-Sep-16 04:00N 31°10' W 142°07'1 0.6
2017-Sep-16 03:00N 31°10' W 142°07'1 0.8
2017-Sep-16 02:00N 31°10' W 142°07'1 0.8
2017-Sep-16 01:00N 31°10' W 142°06'0 0.0
2017-Sep-16 00:00N 31°10' W 142°06'2 0.5
2017-Sep-15 20:00N 31°08' W 142°06'0 0.0
2017-Sep-15 19:00N 31°08' W 142°06'1 1.2
2017-Sep-15 18:00N 31°07' W 142°06'0 0.0
2017-Sep-15 17:00N 31°07' W 142°06'1 0.6
2017-Sep-15 16:00N 31°06' W 142°06'0 0.0
2017-Sep-15 15:00N 31°06' W 142°06'1 0.8
2017-Sep-15 14:00N 31°05' W 142°05'4 4.1
2017-Sep-15 13:00N 31°02' W 142°03'4 3.6
2017-Sep-15 12:00N 31°05' W 142°05'4 3.6
2017-Sep-15 11:00N 31°02' W 142°03'1 0.1
2017-Sep-15 07:00N 31°02' W 142°02'1 0.5
2017-Sep-15 06:00N 31°02' W 142°02'1 0.8
2017-Sep-15 05:00N 31°01' W 142°01'1 0.5
2017-Sep-15 04:00N 31°01' W 142°01'1 0.5
2017-Sep-15 03:00N 31°01' W 142°00'1 0.3
2017-Sep-15 01:00N 31°01' W 141°59'1 0.8
2017-Sep-15 00:00N 31°01' W 141°59'0 0.0
2017-Sep-14 23:00N 31°01' W 141°59'0 0.0
2017-Sep-14 22:00N 31°01' W 141°59'1 0.3
2017-Sep-14 20:00N 31°01' W 141°58'1 0.8
2017-Sep-14 19:00N 31°00' W 141°59'1 0.5
2017-Sep-14 18:00N 31°00' W 141°59'2 1.0
2017-Sep-14 16:00N 30°59' W 141°58'1 0.6
2017-Sep-14 14:00N 30°58' W 141°56'1 1.3
2017-Sep-14 13:00N 30°57' W 141°56'4 2.1
2017-Sep-14 11:00N 30°56' W 141°51'0 0.0
2017-Sep-14 07:00N 30°56' W 141°51'1 0.8
2017-Sep-14 06:00N 30°56' W 141°52'0 0.0
2017-Sep-14 05:00N 30°56' W 141°52'1 1.2
2017-Sep-14 04:00N 30°56' W 141°50'1 0.5
2017-Sep-14 03:00N 30°56' W 141°50'1 1.0
2017-Sep-14 02:00N 30°56' W 141°49'1 0.5
2017-Sep-14 01:00N 30°56' W 141°49'1 1.2
2017-Sep-14 00:00N 30°55' W 141°48'0 0.0
2017-Sep-13 23:00N 30°55' W 141°48'1 0.2
2017-Sep-13 20:00N 30°55' W 141°48'1 1.3
2017-Sep-13 19:00N 30°53' W 141°47'1 1.2
2017-Sep-13 18:00N 30°53' W 141°46'0 0.0
2017-Sep-13 17:00N 30°53' W 141°46'1 0.5
2017-Sep-13 16:00N 30°53' W 141°46'1 0.8
2017-Sep-13 15:00N 30°52' W 141°45'1 1.0
2017-Sep-13 14:00N 30°52' W 141°44'1 0.8
2017-Sep-13 13:00N 30°53' W 141°43'4 3.9
2017-Sep-13 12:00N 30°50' W 141°40'3 3.3
2017-Sep-13 11:00N 30°52' W 141°43'3 0.8
2017-Sep-13 07:00N 30°50' W 141°40'1 1.0
2017-Sep-13 06:00N 30°50' W 141°38'1 1.0
2017-Sep-13 05:00N 30°50' W 141°37'1 0.8
2017-Sep-13 04:00N 30°50' W 141°37'1 0.6
2017-Sep-13 02:00N 30°50' W 141°35'1 0.8
2017-Sep-13 01:00N 30°50' W 141°35'1 1.0
2017-Sep-13 00:00N 30°50' W 141°34'0 0.0
2017-Sep-12 23:00N 30°50' W 141°34'3 0.9
2017-Sep-12 20:00N 30°49' W 141°31'0 0.0
2017-Sep-12 19:00N 30°49' W 141°31'1 0.5
2017-Sep-12 18:00N 30°49' W 141°30'1 1.2
2017-Sep-12 17:00N 30°48' W 141°29'0 0.0
2017-Sep-12 16:00N 30°48' W 141°29'1 1.0
2017-Sep-12 15:00N 30°48' W 141°28'1 0.5
2017-Sep-12 14:00N 30°48' W 141°28'2 1.5
2017-Sep-12 13:00N 30°48' W 141°26'3 2.8
2017-Sep-12 12:00N 30°47' W 141°23'3 3.3
2017-Sep-12 11:00N 30°48' W 141°27'4 1.0
2017-Sep-12 07:00N 30°47' W 141°23'1 1.0
2017-Sep-12 06:00N 30°47' W 141°22'1 0.5
2017-Sep-12 05:00N 30°47' W 141°21'1 0.5
2017-Sep-12 04:00N 30°47' W 141°20'1 0.8
2017-Sep-12 03:00N 30°47' W 141°20'1 0.8
2017-Sep-12 02:00N 30°47' W 141°19'1 0.5
2017-Sep-12 01:00N 30°47' W 141°19'1 1.0
2017-Sep-12 00:00N 30°47' W 141°17'0 0.0
2017-Sep-11 23:00N 30°47' W 141°17'3 1.1
2017-Sep-11 20:00N 30°46' W 141°14'  

Dump ship's entire track history